Time;durP1;ratioP1;P1;durP2;ratioP2;P2;SDS_P1;SDS_P2;PMS_P1;PMS_P2;Temp;Humidity;BMP_temperature;BMP_pressure;BME280_temperature;BME280_humidity;BME280_pressure;Samples;Min_cycle;Max_cycle;Signal;HPM_P1;HPM_P2
2022/05/02 00:02:21;;;;;;;5.55;2.95;;;;;;;;;;4942773;29;20035;-68
2022/05/02 00:04:47;;;;;;;6.05;2.92;;;;;;;;;;4939949;29;20111;-68
2022/05/02 00:07:13;;;;;;;6.28;2.90;;;;;;;;;;4941477;29;20408;-70
2022/05/02 00:09:38;;;;;;;12.85;4.90;;;;;;;;;;4941136;29;20051;-69
2022/05/02 00:12:05;;;;;;;12.65;5.00;;;;;;;;;;4938365;29;20024;-74
2022/05/02 00:14:31;;;;;;;9.50;4.88;;;;;;;;;;4944052;29;20048;-68
2022/05/02 00:16:56;;;;;;;13.82;5.30;;;;;;;;;;4944771;29;20024;-68
2022/05/02 00:19:22;;;;;;;12.40;4.50;;;;;;;;;;4940543;29;20396;-68
2022/05/02 00:21:48;;;;;;;9.45;4.32;;;;;;;;;;4941279;29;20534;-72
2022/05/02 00:24:14;;;;;;;5.80;4.00;;;;;;;;;;4939901;29;20043;-67
2022/05/02 00:26:41;;;;;;;6.45;4.20;;;;;;;;;;4941877;29;20123;-69
2022/05/02 00:29:07;;;;;;;9.90;4.70;;;;;;;;;;4945166;29;20031;-68
2022/05/02 00:31:33;;;;;;;5.70;3.80;;;;;;;;;;4937489;29;20032;-68
2022/05/02 00:33:59;;;;;;;5.32;3.15;;;;;;;;;;4937522;29;20039;-70
2022/05/02 00:36:26;;;;;;;8.43;3.38;;;;;;;;;;4936862;29;20042;-70
2022/05/02 00:38:52;;;;;;;7.35;2.70;;;;;;;;;;4937424;29;20091;-66
2022/05/02 00:41:19;;;;;;;5.40;3.28;;;;;;;;;;4937040;29;20098;-71
2022/05/02 00:43:46;;;;;;;8.85;3.53;;;;;;;;;;4937099;29;20083;-67
2022/05/02 00:46:22;;;;;;;7.25;2.70;;;;;;;;;;4936950;29;20031;-69
2022/05/02 00:48:48;;;;;;;8.43;2.95;;;;;;;;;;4937152;29;20028;-65
2022/05/02 00:51:15;;;;;;;6.00;3.40;;;;;;;;;;4937055;28;20027;-65
2022/05/02 00:53:44;;;;;;;8.85;4.05;;;;;;;;;;4937024;29;20502;-66
2022/05/02 00:56:09;;;;;;;7.03;3.70;;;;;;;;;;4936671;29;20070;-68
2022/05/02 00:58:36;;;;;;;5.80;3.13;;;;;;;;;;4936581;29;20422;-65
2022/05/02 01:01:04;;;;;;;6.72;3.40;;;;;;;;;;4936902;29;20119;-67
2022/05/02 01:03:33;;;;;;;8.35;4.30;;;;;;;;;;4936870;29;20482;-65
2022/05/02 01:08:44;;;;;;;7.88;3.13;;;;;;;;;;4936981;29;20061;-66
2022/05/02 01:11:09;;;;;;;8.10;3.38;;;;;;;;;;4936943;29;20252;-66
2022/05/02 01:13:44;;;;;;;10.20;4.00;;;;;;;;;;4937533;29;20043;-70
2022/05/02 01:16:24;;;;;;;7.63;3.80;;;;;;;;;;4936123;29;20479;-74
2022/05/02 01:18:52;;;;;;;7.80;4.30;;;;;;;;;;4936509;29;20040;-67
2022/05/02 01:21:20;;;;;;;10.45;3.63;;;;;;;;;;4936558;29;20020;-67
2022/05/02 01:23:51;;;;;;;9.57;3.95;;;;;;;;;;4936124;29;20142;-66
2022/05/02 01:26:18;;;;;;;6.75;4.70;;;;;;;;;;4936164;29;20394;-68
2022/05/02 01:28:49;;;;;;;7.07;4.55;;;;;;;;;;4936280;29;20036;-68
2022/05/02 01:31:16;;;;;;;6.90;4.50;;;;;;;;;;4935962;29;20050;-67
2022/05/02 01:33:42;;;;;;;7.93;4.63;;;;;;;;;;4936382;29;20027;-66
2022/05/02 01:36:08;;;;;;;8.45;5.47;;;;;;;;;;4936007;29;20050;-69
2022/05/02 01:38:35;;;;;;;8.18;5.07;;;;;;;;;;4936137;29;20049;-64
2022/05/02 01:41:05;;;;;;;8.25;5.10;;;;;;;;;;4936149;29;20442;-67
2022/05/02 01:43:31;;;;;;;8.63;4.72;;;;;;;;;;4935995;29;20031;-67
2022/05/02 01:46:01;;;;;;;9.73;5.50;;;;;;;;;;4935845;29;20482;-69
2022/05/02 01:48:28;;;;;;;7.05;4.60;;;;;;;;;;4936090;29;20491;-66
2022/05/02 01:50:54;;;;;;;9.52;5.15;;;;;;;;;;4936098;29;20431;-67
2022/05/02 01:53:20;;;;;;;9.75;5.93;;;;;;;;;;4935655;29;20027;-67
2022/05/02 01:55:47;;;;;;;11.18;5.15;;;;;;;;;;4935512;29;20071;-66
2022/05/02 01:58:13;;;;;;;8.60;4.70;;;;;;;;;;4935934;29;20038;-68
2022/05/02 02:00:39;;;;;;;10.77;5.30;;;;;;;;;;4934320;29;20047;-69
2022/05/02 02:03:05;;;;;;;9.10;4.97;;;;;;;;;;4950721;29;20210;-70
2022/05/02 02:05:49;;;;;;;12.25;4.60;;;;;;;;;;4935745;29;20040;-67
2022/05/02 02:08:16;;;;;;;7.50;5.03;;;;;;;;;;4934764;29;20372;-68
2022/05/02 02:10:43;;;;;;;8.57;4.63;;;;;;;;;;4950689;29;20035;-70
2022/05/02 02:13:10;;;;;;;9.15;4.88;;;;;;;;;;4935438;29;20040;-69
2022/05/02 02:15:36;;;;;;;11.88;5.43;;;;;;;;;;4935542;29;20027;-69
2022/05/02 02:18:02;;;;;;;8.10;4.78;;;;;;;;;;4934721;29;20087;-69
2022/05/02 02:20:28;;;;;;;7.00;4.63;;;;;;;;;;4935278;29;20051;-73
2022/05/02 02:22:55;;;;;;;8.88;5.00;;;;;;;;;;4935680;29;20036;-66
2022/05/02 02:25:23;;;;;;;10.80;5.18;;;;;;;;;;4935199;29;20378;-66
2022/05/02 02:27:48;;;;;;;5.97;4.78;;;;;;;;;;4935546;29;20506;-69
2022/05/02 02:30:14;;;;;;;7.65;4.40;;;;;;;;;;4935398;29;20064;-68
2022/05/02 02:32:41;;;;;;;7.68;4.18;;;;;;;;;;4935218;29;20130;-72
2022/05/02 02:35:07;;;;;;;8.90;4.63;;;;;;;;;;4934605;29;20106;-68
2022/05/02 02:37:33;;;;;;;9.10;4.45;;;;;;;;;;4934944;29;20046;-73
2022/05/02 02:39:59;;;;;;;8.68;4.53;;;;;;;;;;4934735;29;20028;-69
2022/05/02 02:42:25;;;;;;;7.00;4.68;;;;;;;;;;4933516;29;20379;-73
2022/05/02 02:44:51;;;;;;;9.45;4.50;;;;;;;;;;4935022;29;20034;-69
2022/05/02 02:47:18;;;;;;;8.48;4.38;;;;;;;;;;4934941;29;20423;-71
2022/05/02 02:49:44;;;;;;;7.30;3.97;;;;;;;;;;4934965;29;20056;-69
2022/05/02 02:52:10;;;;;;;6.88;4.45;;;;;;;;;;4934724;29;20122;-68
2022/05/02 02:54:36;;;;;;;7.72;4.22;;;;;;;;;;4934353;29;20123;-71
2022/05/02 02:57:02;;;;;;;7.95;4.43;;;;;;;;;;4934603;29;20043;-72
2022/05/02 02:59:27;;;;;;;6.80;4.35;;;;;;;;;;4934508;29;20536;-68
2022/05/02 03:01:56;;;;;;;7.90;3.90;;;;;;;;;;4935033;29;20046;-68
2022/05/02 03:07:07;;;;;;;6.28;3.20;;;;;;;;;;4934752;29;20037;-71
2022/05/02 03:09:33;;;;;;;6.30;3.55;;;;;;;;;;4935000;29;20031;-69
2022/05/02 03:12:00;;;;;;;4.53;3.17;;;;;;;;;;4934621;29;20036;-68
2022/05/02 03:14:25;;;;;;;5.68;3.97;;;;;;;;;;4935028;29;20019;-68
2022/05/02 03:16:51;;;;;;;4.30;3.00;;;;;;;;;;4934562;29;20397;-69
2022/05/02 03:19:17;;;;;;;5.80;3.10;;;;;;;;;;4934834;29;20107;-69
2022/05/02 03:21:43;;;;;;;5.20;2.90;;;;;;;;;;4934835;29;20475;-69
2022/05/02 03:24:08;;;;;;;7.50;3.10;;;;;;;;;;4922434;29;20115;-69
2022/05/02 03:26:34;;;;;;;4.38;2.90;;;;;;;;;;4915553;29;20043;-70
2022/05/02 03:29:00;;;;;;;5.53;2.97;;;;;;;;;;4915201;29;20024;-68
2022/05/02 03:31:26;;;;;;;4.25;3.00;;;;;;;;;;4915216;29;20047;-73
2022/05/02 03:33:52;;;;;;;7.30;3.15;;;;;;;;;;4925346;29;20114;-69
2022/05/02 03:36:18;;;;;;;5.65;3.72;;;;;;;;;;4933609;29;20110;-68
2022/05/02 03:38:44;;;;;;;11.68;4.75;;;;;;;;;;4915462;29;20024;-71
2022/05/02 03:41:09;;;;;;;8.13;5.97;;;;;;;;;;4915381;29;20036;-69
2022/05/02 03:43:36;;;;;;;8.50;5.38;;;;;;;;;;4915613;29;20049;-66
2022/05/02 03:46:02;;;;;;;7.97;5.95;;;;;;;;;;4915025;29;20040;-72
2022/05/02 03:48:28;;;;;;;9.63;5.68;;;;;;;;;;4914979;29;20024;-74
2022/05/02 03:50:54;;;;;;;8.82;6.07;;;;;;;;;;4915229;29;20029;-70
2022/05/02 03:53:20;;;;;;;7.75;5.80;;;;;;;;;;4915391;29;20481;-67
2022/05/02 03:55:46;;;;;;;9.20;6.35;;;;;;;;;;4918964;29;20042;-73
2022/05/02 03:58:13;;;;;;;12.23;5.85;;;;;;;;;;4918848;29;20036;-72
2022/05/02 04:00:39;;;;;;;13.13;6.75;;;;;;;;;;4918728;29;20048;-70
2022/05/02 04:03:05;;;;;;;9.15;6.97;;;;;;;;;;4919031;29;20039;-71
2022/05/02 04:05:31;;;;;;;9.60;5.80;;;;;;;;;;4918844;29;20060;-70
2022/05/02 04:07:57;;;;;;;8.85;5.50;;;;;;;;;;4918563;29;20162;-73
2022/05/02 04:10:23;;;;;;;9.07;5.20;;;;;;;;;;4918746;29;20070;-71
2022/05/02 04:12:49;;;;;;;7.70;3.80;;;;;;;;;;4918689;29;20399;-68
2022/05/02 04:15:15;;;;;;;4.93;3.70;;;;;;;;;;4934472;29;20051;-70
2022/05/02 04:17:41;;;;;;;7.70;3.95;;;;;;;;;;4919938;29;20032;-71
2022/05/02 04:20:08;;;;;;;5.30;3.70;;;;;;;;;;4918289;29;20039;-67
2022/05/02 04:22:35;;;;;;;6.38;3.47;;;;;;;;;;4918446;29;20032;-70
2022/05/02 04:25:01;;;;;;;7.72;3.47;;;;;;;;;;4918361;29;20039;-68
2022/05/02 04:27:27;;;;;;;7.28;3.53;;;;;;;;;;4918359;29;20030;-68
2022/05/02 04:29:53;;;;;;;6.30;3.65;;;;;;;;;;4919350;29;20499;-68
2022/05/02 04:32:19;;;;;;;5.28;3.30;;;;;;;;;;4937048;29;20055;-69
2022/05/02 04:34:45;;;;;;;7.85;3.90;;;;;;;;;;4920088;29;20523;-70
2022/05/02 04:37:11;;;;;;;5.28;3.67;;;;;;;;;;4918354;29;20035;-70
2022/05/02 04:39:37;;;;;;;6.65;3.75;;;;;;;;;;4926555;29;20036;-67
2022/05/02 04:42:03;;;;;;;5.95;3.70;;;;;;;;;;4928456;29;20110;-69
2022/05/02 04:44:31;;;;;;;6.40;3.60;;;;;;;;;;4918988;29;20040;-69
2022/05/02 04:46:56;;;;;;;8.80;3.58;;;;;;;;;;4918902;29;20020;-71
2022/05/02 04:49:22;;;;;;;7.95;3.35;;;;;;;;;;4931405;29;20394;-68
2022/05/02 04:51:48;;;;;;;9.20;4.50;;;;;;;;;;4938009;29;20102;-71
2022/05/02 04:54:14;;;;;;;8.07;3.83;;;;;;;;;;4938170;29;20040;-67
2022/05/02 04:56:40;;;;;;;8.15;3.58;;;;;;;;;;4937762;29;20162;-71
2022/05/02 04:59:06;;;;;;;5.25;3.50;;;;;;;;;;4937529;29;20046;-66
2022/05/02 05:01:31;;;;;;;4.93;3.30;;;;;;;;;;4937823;29;20147;-70
2022/05/02 05:03:57;;;;;;;8.80;3.30;;;;;;;;;;4937950;29;20039;-67
2022/05/02 05:06:23;;;;;;;5.38;3.30;;;;;;;;;;4937165;29;20028;-68
2022/05/02 05:08:49;;;;;;;6.60;3.58;;;;;;;;;;4937780;29;20035;-66
2022/05/02 05:11:31;;;;;;;6.20;3.55;;;;;;;;;;4937670;29;20038;-68
2022/05/02 05:17:02;;;;;;;5.47;3.60;;;;;;;;;;4936048;29;20047;-67
2022/05/02 05:20:08;;;;;;;6.82;4.00;;;;;;;;;;4937437;29;20075;-67
2022/05/02 05:23:01;;;;;;;7.80;3.63;;;;;;;;;;4937253;29;20039;-70
2022/05/02 05:25:39;;;;;;;6.55;3.53;;;;;;;;;;4937580;29;20360;-70
2022/05/02 05:28:47;;;;;;;5.72;3.40;;;;;;;;;;4937358;29;20036;-72
2022/05/02 05:31:32;;;;;;;6.63;3.60;;;;;;;;;;4935284;29;20052;-71
2022/05/02 05:34:06;;;;;;;7.15;3.97;;;;;;;;;;4937173;29;20483;-68
2022/05/02 05:36:32;;;;;;;5.43;3.80;;;;;;;;;;4936515;29;20043;-73
2022/05/02 05:39:05;;;;;;;5.82;4.00;;;;;;;;;;4936627;29;20028;-70
2022/05/02 05:41:36;;;;;;;4.57;3.27;;;;;;;;;;4936745;29;20352;-67
2022/05/02 05:44:11;;;;;;;6.45;3.97;;;;;;;;;;4936694;29;20036;-67
2022/05/02 05:46:42;;;;;;;5.82;3.60;;;;;;;;;;4936348;29;20027;-70
2022/05/02 05:49:47;;;;;;;7.55;3.58;;;;;;;;;;4936445;29;20166;-69
2022/05/02 05:52:35;;;;;;;8.55;4.03;;;;;;;;;;4935832;29;20090;-68
2022/05/02 05:55:06;;;;;;;8.95;4.00;;;;;;;;;;4936900;29;20487;-69
2022/05/02 05:57:57;;;;;;;5.10;3.83;;;;;;;;;;4936499;28;20055;-68
2022/05/02 06:00:25;;;;;;;4.65;3.40;;;;;;;;;;4936260;29;20047;-69
2022/05/02 06:03:02;;;;;;;8.80;3.70;;;;;;;;;;4935447;29;20048;-72
2022/05/02 06:05:28;;;;;;;14.35;3.88;;;;;;;;;;4936316;29;20039;-67
2022/05/02 06:07:55;;;;;;;5.22;3.83;;;;;;;;;;4936866;29;20074;-68
2022/05/02 06:10:25;;;;;;;5.20;3.40;;;;;;;;;;4936567;29;20039;-67
2022/05/02 06:12:53;;;;;;;6.90;3.63;;;;;;;;;;4935253;29;20047;-68
2022/05/02 06:20:52;;;;;;;6.95;4.00;;;;;;;;;;4936141;29;20099;-68
2022/05/02 06:23:19;;;;;;;9.25;3.60;;;;;;;;;;4936124;29;20028;-71
2022/05/02 06:25:52;;;;;;;6.75;3.50;;;;;;;;;;4935734;29;20115;-66
2022/05/02 06:28:22;;;;;;;5.53;3.60;;;;;;;;;;4936219;29;20027;-71
2022/05/02 06:30:51;;;;;;;4.93;3.38;;;;;;;;;;4933847;29;20040;-68
2022/05/02 06:33:20;;;;;;;10.18;3.60;;;;;;;;;;4935628;29;20119;-67
2022/05/02 06:35:56;;;;;;;6.32;3.72;;;;;;;;;;4929892;29;20039;-67
2022/05/02 06:38:55;;;;;;;6.70;3.95;;;;;;;;;;4916352;29;20036;-65
2022/05/02 06:42:18;;;;;;;10.65;3.53;;;;;;;;;;4916391;29;20044;-67
2022/05/02 06:45:08;;;;;;;10.75;3.67;;;;;;;;;;4923781;29;20040;-68
2022/05/02 06:47:58;;;;;;;8.00;4.22;;;;;;;;;;4950921;29;20141;-70
2022/05/02 06:50:25;;;;;;;4.65;3.22;;;;;;;;;;4953475;28;20134;-70
2022/05/02 06:53:03;;;;;;;6.55;3.20;;;;;;;;;;4953394;29;20031;-70
2022/05/02 06:56:03;;;;;;;5.13;2.70;;;;;;;;;;4953738;28;20035;-71
2022/05/02 06:59:02;;;;;;;4.32;2.20;;;;;;;;;;4952806;29;20051;-71
2022/05/02 07:01:53;;;;;;;8.07;3.80;;;;;;;;;;4953050;28;20036;-72
2022/05/02 07:04:48;;;;;;;6.85;2.63;;;;;;;;;;4937488;29;20036;-73
2022/05/02 07:07:38;;;;;;;4.38;2.47;;;;;;;;;;4930217;29;20099;-72
2022/05/02 07:10:13;;;;;;;6.05;2.70;;;;;;;;;;4916111;29;20040;-70
2022/05/02 07:12:53;;;;;;;4.60;2.20;;;;;;;;;;4932096;29;20063;-70
2022/05/02 07:15:42;;;;;;;5.35;2.33;;;;;;;;;;4933688;29;20494;-72
2022/05/02 07:18:24;;;;;;;6.65;2.50;;;;;;;;;;4917561;29;20044;-71
2022/05/02 07:21:04;;;;;;;6.87;2.63;;;;;;;;;;4930249;29;20475;-73
2022/05/02 07:23:58;;;;;;;11.38;2.75;;;;;;;;;;4934599;29;20032;-77
2022/05/02 07:26:27;;;;;;;8.27;2.55;;;;;;;;;;4930141;29;20098;-77
2022/05/02 07:28:55;;;;;;;4.75;2.63;;;;;;;;;;4924605;29;20041;-77
2022/05/02 07:31:23;;;;;;;6.45;2.47;;;;;;;;;;4932968;29;20051;-79
2022/05/02 07:33:53;;;;;;;4.85;2.70;;;;;;;;;;4939044;29;20063;-76
2022/05/02 07:36:22;;;;;;;5.40;3.05;;;;;;;;;;4938733;29;20511;-77
2022/05/02 07:38:54;;;;;;;5.28;2.75;;;;;;;;;;4938649;29;20035;-76
2022/05/02 07:41:25;;;;;;;5.82;2.70;;;;;;;;;;4937581;29;20111;-78
2022/05/02 07:43:59;;;;;;;6.60;2.88;;;;;;;;;;4937091;29;20055;-76
2022/05/02 07:46:28;;;;;;;4.50;2.55;;;;;;;;;;4938724;29;20063;-74
2022/05/02 07:48:56;;;;;;;6.55;2.45;;;;;;;;;;4938781;29;20390;-77
2022/05/02 07:51:23;;;;;;;6.57;3.13;;;;;;;;;;4938736;29;20043;-76
2022/05/02 07:53:50;;;;;;;5.90;3.25;;;;;;;;;;4938717;29;20027;-78
2022/05/02 07:56:17;;;;;;;8.70;3.00;;;;;;;;;;4938165;29;20114;-71
2022/05/02 07:58:47;;;;;;;7.22;3.22;;;;;;;;;;4936732;29;20044;-71
2022/05/02 08:01:21;;;;;;;4.47;3.35;;;;;;;;;;4938241;29;20032;-71
2022/05/02 08:03:47;;;;;;;4.20;2.75;;;;;;;;;;4938601;29;20046;-73
2022/05/02 08:06:45;;;;;;;5.18;3.33;;;;;;;;;;4938667;29;20111;-70
2022/05/02 08:09:43;;;;;;;4.40;3.03;;;;;;;;;;4937728;29;20040;-74
2022/05/02 08:12:22;;;;;;;5.32;2.90;;;;;;;;;;4938079;29;20036;-71
2022/05/02 08:15:05;;;;;;;6.60;3.67;;;;;;;;;;4938083;29;20039;-71
2022/05/02 08:17:56;;;;;;;3.78;2.65;;;;;;;;;;4937802;29;20090;-73
2022/05/02 08:20:42;;;;;;;3.65;2.60;;;;;;;;;;4937692;29;20083;-74
2022/05/02 08:29:21;;;;;;;5.50;3.50;;;;;;;;;;4938968;29;20501;-71
2022/05/02 08:31:55;;;;;;;4.25;2.95;;;;;;;;;;4937609;29;20034;-72
2022/05/02 08:34:34;;;;;;;4.53;2.97;;;;;;;;;;4937446;29;20080;-73
2022/05/02 08:37:55;;;;;;;6.18;2.50;;;;;;;;;;4936714;29;20134;-72
2022/05/02 08:40:27;;;;;;;4.85;2.80;;;;;;;;;;4935315;29;20058;-72
2022/05/02 08:43:21;;;;;;;6.68;2.50;;;;;;;;;;4937330;29;20047;-74
2022/05/02 08:46:17;;;;;;;7.32;3.53;;;;;;;;;;4937045;29;20091;-70
2022/05/02 08:52:28;;;;;;;8.82;2.75;;;;;;;;;;4937104;29;20046;-70
2022/05/02 08:55:12;;;;;;;6.43;2.40;;;;;;;;;;4933822;29;20043;-74
2022/05/02 08:58:02;;;;;;;4.82;3.28;;;;;;;;;;4937407;29;20094;-70
2022/05/02 09:00:53;;;;;;;6.25;2.47;;;;;;;;;;4937134;29;20059;-73
2022/05/02 09:03:37;;;;;;;7.28;3.90;;;;;;;;;;4937256;29;20032;-70
2022/05/02 09:06:28;;;;;;;9.20;3.20;;;;;;;;;;4936912;29;20119;-71
2022/05/02 09:09:03;;;;;;;6.10;3.08;;;;;;;;;;4937411;29;20054;-70
2022/05/02 09:11:39;;;;;;;7.78;2.92;;;;;;;;;;4937426;29;20039;-77
2022/05/02 09:14:43;;;;;;;4.93;2.75;;;;;;;;;;4936936;29;20036;-72
2022/05/02 09:17:21;;;;;;;7.82;3.13;;;;;;;;;;4936910;29;20166;-72
2022/05/02 09:20:06;;;;;;;3.97;2.42;;;;;;;;;;4936438;29;20032;-73
2022/05/02 09:23:07;;;;;;;5.35;2.90;;;;;;;;;;4935046;29;20102;-72
2022/05/02 09:25:39;;;;;;;15.35;3.65;;;;;;;;;;4937002;29;20075;-77
2022/05/02 09:28:20;;;;;;;7.32;4.25;;;;;;;;;;4936430;29;20039;-76
2022/05/02 09:31:01;;;;;;;10.38;5.30;;;;;;;;;;4936865;29;20035;-76
2022/05/02 09:33:32;;;;;;;7.65;3.35;;;;;;;;;;4936579;29;20498;-69
2022/05/02 09:36:25;;;;;;;7.85;3.60;;;;;;;;;;4934076;29;20079;-73
2022/05/02 09:39:04;;;;;;;7.35;2.80;;;;;;;;;;4920300;29;20443;-74
2022/05/02 09:42:00;;;;;;;7.47;3.38;;;;;;;;;;4917153;29;20036;-76
2022/05/02 09:50:45;;;;;;;10.55;3.22;;;;;;;;;;4916642;29;20056;-75
2022/05/02 09:53:26;;;;;;;9.50;5.80;;;;;;;;;;4917334;29;20032;-72
2022/05/02 09:58:56;;;;;;;7.32;3.92;;;;;;;;;;4936137;29;20052;-72
2022/05/02 10:01:31;;;;;;;7.45;3.67;;;;;;;;;;4931463;29;20028;-72
2022/05/02 10:04:31;;;;;;;11.05;5.93;;;;;;;;;;4932354;29;20040;-72
2022/05/02 10:07:06;;;;;;;9.68;4.78;;;;;;;;;;4935436;29;20059;-77
2022/05/02 10:09:41;;;;;;;12.48;7.93;;;;;;;;;;4936057;29;20419;-73
2022/05/02 10:12:35;;;;;;;5.88;3.55;;;;;;;;;;4933208;29;20432;-73
2022/05/02 10:15:15;;;;;;;5.85;3.00;;;;;;;;;;4917047;29;20080;-71
2022/05/02 10:17:48;;;;;;;7.30;3.25;;;;;;;;;;4916434;29;20407;-76
2022/05/02 10:20:13;;;;;;;7.35;3.78;;;;;;;;;;4916512;29;20047;-75
2022/05/02 10:22:50;;;;;;;10.40;4.10;;;;;;;;;;4916319;29;20055;-73
2022/05/02 10:25:42;;;;;;;29.23;17.30;;;;;;;;;;4916348;29;20436;-74
2022/05/02 10:28:27;;;;;;;23.75;12.77;;;;;;;;;;4916525;29;20053;-74
2022/05/02 10:31:09;;;;;;;16.95;10.10;;;;;;;;;;4926630;29;20040;-72
2022/05/02 10:33:45;;;;;;;19.95;13.52;;;;;;;;;;4935609;29;20032;-74
2022/05/02 10:36:12;;;;;;;10.68;5.97;;;;;;;;;;4934844;29;20070;-76
2022/05/02 10:39:01;;;;;;;18.10;10.57;;;;;;;;;;4935195;29;20047;-71
2022/05/02 10:41:27;;;;;;;17.58;12.13;;;;;;;;;;4935199;29;20087;-73
2022/05/02 10:44:06;;;;;;;19.50;9.60;;;;;;;;;;4935118;29;20462;-73
2022/05/02 10:46:33;;;;;;;19.08;10.52;;;;;;;;;;4935098;29;20451;-72
2022/05/02 10:49:36;;;;;;;19.67;9.52;;;;;;;;;;4935475;29;20463;-73
2022/05/02 10:52:20;;;;;;;14.68;8.40;;;;;;;;;;4935384;29;20053;-72
2022/05/02 10:54:53;;;;;;;12.68;7.32;;;;;;;;;;4935306;29;20168;-73
2022/05/02 10:57:51;;;;;;;10.93;6.50;;;;;;;;;;4935014;29;20122;-71
2022/05/02 11:00:17;;;;;;;16.67;7.20;;;;;;;;;;4934943;29;20055;-72
2022/05/02 11:03:07;;;;;;;15.25;7.53;;;;;;;;;;4935421;29;20042;-72
2022/05/02 11:06:02;;;;;;;13.52;8.13;;;;;;;;;;4935045;29;20383;-76
2022/05/02 11:08:51;;;;;;;17.67;8.30;;;;;;;;;;4934821;29;20100;-73
2022/05/02 11:11:27;;;;;;;14.10;6.57;;;;;;;;;;4935161;29;20039;-75
2022/05/02 11:14:35;;;;;;;10.88;6.47;;;;;;;;;;4935005;29;20050;-75
2022/05/02 11:17:10;;;;;;;11.68;8.13;;;;;;;;;;4934911;29;20046;-74
2022/05/02 11:22:39;;;;;;;8.63;5.80;;;;;;;;;;4934016;29;20621;-71
2022/05/02 11:25:08;;;;;;;13.50;6.50;;;;;;;;;;4934479;29;20054;-71
2022/05/02 11:27:43;;;;;;;11.60;6.35;;;;;;;;;;4934475;29;20027;-74
2022/05/02 11:30:11;;;;;;;12.82;6.25;;;;;;;;;;4935015;29;20040;-74
2022/05/02 11:32:53;;;;;;;12.13;5.82;;;;;;;;;;4934641;29;20035;-72
2022/05/02 11:35:28;;;;;;;9.88;5.85;;;;;;;;;;4934407;29;20051;-75
2022/05/02 11:37:55;;;;;;;10.73;5.60;;;;;;;;;;4934369;29;20031;-75
2022/05/02 11:40:30;;;;;;;10.02;5.60;;;;;;;;;;4928765;29;20382;-76
2022/05/02 11:42:57;;;;;;;9.75;5.50;;;;;;;;;;4915338;29;20036;-75
2022/05/02 11:45:49;;;;;;;12.15;5.47;;;;;;;;;;4914795;29;20036;-73
2022/05/02 11:48:35;;;;;;;7.70;5.68;;;;;;;;;;4914793;29;20040;-73
2022/05/02 11:51:06;;;;;;;8.55;5.60;;;;;;;;;;4915033;29;20029;-75
2022/05/02 11:53:37;;;;;;;8.70;5.15;;;;;;;;;;4914659;29;20032;-73
2022/05/02 11:56:05;;;;;;;6.97;5.13;;;;;;;;;;4915577;29;20029;-73
2022/05/02 11:58:42;;;;;;;8.55;5.35;;;;;;;;;;4918402;29;20029;-71
2022/05/02 12:01:11;;;;;;;6.95;5.38;;;;;;;;;;4932916;29;20110;-75
2022/05/02 12:03:59;;;;;;;8.55;5.18;;;;;;;;;;4933084;29;20490;-73
2022/05/02 12:06:59;;;;;;;7.32;4.57;;;;;;;;;;4933303;29;20044;-74
2022/05/02 12:09:25;;;;;;;6.80;4.82;;;;;;;;;;4914281;29;20127;-74
2022/05/02 12:11:58;;;;;;;8.35;5.22;;;;;;;;;;4913968;29;20028;-75
2022/05/02 12:14:25;;;;;;;7.45;4.53;;;;;;;;;;4913574;29;20055;-74
2022/05/02 12:17:09;;;;;;;7.80;5.10;;;;;;;;;;4916808;29;20048;-73
2022/05/02 12:19:39;;;;;;;8.18;4.72;;;;;;;;;;4918606;29;20036;-73
2022/05/02 12:22:20;;;;;;;6.32;4.68;;;;;;;;;;4919378;29;20081;-75
2022/05/02 12:24:46;;;;;;;9.43;4.85;;;;;;;;;;4936661;28;20040;-76
2022/05/02 12:27:14;;;;;;;6.47;4.18;;;;;;;;;;4951826;29;20032;-74
2022/05/02 12:29:42;;;;;;;5.65;3.95;;;;;;;;;;4936880;29;20090;-74
2022/05/02 12:32:10;;;;;;;8.52;4.47;;;;;;;;;;4937680;29;20028;-75
2022/05/02 12:34:42;;;;;;;9.75;4.18;;;;;;;;;;4936535;29;20163;-75
2022/05/02 12:37:30;;;;;;;6.50;3.63;;;;;;;;;;4930575;29;20038;-77
2022/05/02 12:40:05;;;;;;;8.73;3.65;;;;;;;;;;4931487;29;20061;-77
2022/05/02 12:42:39;;;;;;;6.57;3.72;;;;;;;;;;4933054;29;20115;-76
2022/05/02 12:45:11;;;;;;;7.60;4.45;;;;;;;;;;4935172;29;20035;-76
2022/05/02 12:47:48;;;;;;;5.57;3.80;;;;;;;;;;4933119;29;20513;-76
2022/05/02 12:50:18;;;;;;;10.68;3.95;;;;;;;;;;4930314;29;20042;-73
2022/05/02 12:52:50;;;;;;;7.90;4.07;;;;;;;;;;4935066;28;20050;-74
2022/05/02 12:55:19;;;;;;;6.40;3.97;;;;;;;;;;4928495;29;20032;-72
2022/05/02 13:00:41;;;;;;;8.07;5.13;;;;;;;;;;4937140;29;20119;-74
2022/05/02 13:03:12;;;;;;;6.93;4.55;;;;;;;;;;4934054;29;20032;-72
2022/05/02 13:06:04;;;;;;;10.82;3.85;;;;;;;;;;4936607;29;20038;-73
2022/05/02 13:08:36;;;;;;;5.82;3.67;;;;;;;;;;4935010;29;20103;-73
2022/05/02 13:11:12;;;;;;;6.70;3.58;;;;;;;;;;4935573;29;20119;-76
2022/05/02 13:13:47;;;;;;;5.55;3.60;;;;;;;;;;4936168;29;20046;-75
2022/05/02 13:16:38;;;;;;;6.50;4.10;;;;;;;;;;4936227;29;20031;-74
2022/05/02 13:19:06;;;;;;;7.75;4.18;;;;;;;;;;4935734;29;20040;-74
2022/05/02 13:21:32;;;;;;;5.07;3.60;;;;;;;;;;4936169;29;20562;-77
2022/05/02 13:24:18;;;;;;;7.35;4.43;;;;;;;;;;4935780;29;20103;-76
2022/05/02 13:27:06;;;;;;;46.72;28.38;;;;;;;;;;4934222;29;20491;-75
2022/05/02 13:30:09;;;;;;;43.35;28.40;;;;;;;;;;4936603;29;20031;-72
2022/05/02 13:33:06;;;;;;;6.22;3.70;;;;;;;;;;4933807;29;20466;-73
2022/05/02 13:35:36;;;;;;;5.47;3.42;;;;;;;;;;4936884;29;20039;-75
2022/05/02 13:38:11;;;;;;;5.13;3.28;;;;;;;;;;4936919;29;20425;-74
2022/05/02 13:41:05;;;;;;;5.68;3.95;;;;;;;;;;4942389;29;20578;-74
2022/05/02 13:43:34;;;;;;;7.53;4.47;;;;;;;;;;4935737;29;20043;-75
2022/05/02 13:46:00;;;;;;;5.70;3.45;;;;;;;;;;4935919;29;20035;-74
2022/05/02 13:48:34;;;;;;;6.20;3.88;;;;;;;;;;4934905;29;20024;-72
2022/05/02 13:51:27;;;;;;;8.10;3.60;;;;;;;;;;4932427;29;20044;-75
2022/05/02 13:53:59;;;;;;;4.35;3.50;;;;;;;;;;4935414;29;20031;-76
2022/05/02 13:56:43;;;;;;;6.60;3.83;;;;;;;;;;4935953;29;20095;-75
2022/05/02 13:59:34;;;;;;;4.70;3.60;;;;;;;;;;4935084;29;20494;-74
2022/05/02 14:02:11;;;;;;;9.27;4.07;;;;;;;;;;4934769;29;20099;-73
2022/05/02 14:04:43;;;;;;;9.77;3.25;;;;;;;;;;4934914;29;20550;-74
2022/05/02 14:07:14;;;;;;;4.85;2.90;;;;;;;;;;4934883;29;20119;-74
2022/05/02 14:09:48;;;;;;;10.07;3.00;;;;;;;;;;4935255;29;20031;-75
2022/05/02 14:12:23;;;;;;;6.47;3.10;;;;;;;;;;4937609;29;20043;-75
2022/05/02 14:15:27;;;;;;;5.47;2.50;;;;;;;;;;4937093;29;20384;-76
2022/05/02 14:17:58;;;;;;;4.07;2.50;;;;;;;;;;4931966;29;20151;-78
2022/05/02 14:20:29;;;;;;;5.03;2.78;;;;;;;;;;4935151;29;20039;-76
2022/05/02 14:23:07;;;;;;;7.38;2.70;;;;;;;;;;4935172;29;20031;-76
2022/05/02 14:25:38;;;;;;;4.45;2.60;;;;;;;;;;4935094;29;20035;-77
2022/05/02 14:28:15;;;;;;;4.53;2.17;;;;;;;;;;4931336;29;20042;-76
2022/05/02 14:30:47;;;;;;;4.05;2.50;;;;;;;;;;4934960;29;20430;-77
2022/05/02 14:33:15;;;;;;;4.95;2.60;;;;;;;;;;4935061;29;20363;-77
2022/05/02 14:35:44;;;;;;;5.90;2.72;;;;;;;;;;4933807;29;20024;-78
2022/05/02 14:38:15;;;;;;;5.95;2.65;;;;;;;;;;4932752;29;20036;-77
2022/05/02 14:40:46;;;;;;;5.75;2.78;;;;;;;;;;4934346;29;20036;-77
2022/05/02 14:43:15;;;;;;;5.55;2.70;;;;;;;;;;4935448;29;20028;-76
2022/05/02 14:45:43;;;;;;;4.93;2.50;;;;;;;;;;4935507;29;20032;-76
2022/05/02 14:48:14;;;;;;;5.60;2.60;;;;;;;;;;4935407;29;20036;-76
2022/05/02 14:50:48;;;;;;;5.38;2.58;;;;;;;;;;4935802;29;20039;-76
2022/05/02 14:53:16;;;;;;;4.20;2.60;;;;;;;;;;4935646;29;20118;-75
2022/05/02 14:55:44;;;;;;;4.75;2.22;;;;;;;;;;4947930;29;20035;-77
2022/05/02 14:58:21;;;;;;;3.90;2.83;;;;;;;;;;4954742;29;20394;-76
2022/05/02 15:00:51;;;;;;;5.38;2.78;;;;;;;;;;4954223;29;20039;-76
2022/05/02 15:03:27;;;;;;;4.85;2.60;;;;;;;;;;4935139;29;20492;-75
2022/05/02 15:06:30;;;;;;;5.95;2.70;;;;;;;;;;4932495;29;20043;-76
2022/05/02 15:10:11;;;;;;;6.97;2.53;;;;;;;;;;4933506;29;20189;-76
2022/05/02 15:12:18;;;;;;;4.60;2.50;;;;;;;;;;4933675;29;20118;-75
2022/05/02 15:15:08;;;;;;;8.13;3.20;;;;;;;;;;4929841;29;20118;-73
2022/05/02 15:17:41;;;;;;;8.18;2.85;;;;;;;;;;4934061;29;20043;-73
2022/05/02 15:20:23;;;;;;;4.97;2.80;;;;;;;;;;4934363;29;20032;-72
2022/05/02 15:22:54;;;;;;;6.32;3.20;;;;;;;;;;4934165;29;20035;-72
2022/05/02 15:25:21;;;;;;;5.72;2.83;;;;;;;;;;4915305;29;20066;-72
2022/05/02 15:36:46;;;;;;;5.97;2.83;;;;;;;;;;4948491;29;20550;-74
2022/05/02 15:39:14;;;;;;;6.38;2.97;;;;;;;;;;4934177;29;20032;-74
2022/05/02 15:41:40;;;;;;;10.13;3.35;;;;;;;;;;4933631;29;20082;-73
2022/05/02 15:44:20;;;;;;;7.43;2.88;;;;;;;;;;4933968;29;20047;-73
2022/05/02 15:46:53;;;;;;;5.38;2.22;;;;;;;;;;4934028;29;20043;-73
2022/05/02 15:49:20;;;;;;;4.50;2.00;;;;;;;;;;4934293;29;20116;-74
2022/05/02 15:52:08;;;;;;;5.10;2.25;;;;;;;;;;4937372;29;20030;-72
2022/05/02 15:54:36;;;;;;;6.25;2.25;;;;;;;;;;4937650;29;20422;-74
2022/05/02 15:57:15;;;;;;;4.38;2.60;;;;;;;;;;4937472;29;20035;-74
2022/05/02 15:59:43;;;;;;;5.07;2.80;;;;;;;;;;4936091;29;20047;-73
2022/05/02 16:02:20;;;;;;;5.22;3.40;;;;;;;;;;4937818;29;20036;-72
2022/05/02 16:04:50;;;;;;;6.32;3.13;;;;;;;;;;4936350;29;20114;-73
2022/05/02 16:10:30;;;;;;;3.38;2.38;;;;;;;;;;4946290;29;20439;-72
2022/05/02 16:12:56;;;;;;;9.23;3.50;;;;;;;;;;4953111;29;20115;-71
2022/05/02 16:15:26;;;;;;;4.85;2.90;;;;;;;;;;4936476;29;20217;-73